Apiliotis — SYVY — position and weather

sailwx.info

Track history (hours):
 
Tides and Currents Weather Stations Pressure Air Temp Water Temp Dewpoint Dewpoint Depression Visibility Wind Speed Wind Dir Waves Ship Positions

Apiliotis

Last reported at 2016-Jun-30 15:32 UTC. Time now 2016-Jun-30 15:59 UTC.
Position N 38°02' E 023°32'.

Length 79 m; draft 4 m.

Type: Ship. MMSI: 240438000.

Date/timePositionNaut miles runAvg speedWind from/ knotsBaromVisibWave heightAir tempDewpointWater temp
2016-Jun-30 15:32N 38°02' E 023°32'0 0.0
2016-Jun-30 14:32N 38°02' E 023°32'0 0.0
2016-Jun-30 13:32N 38°02' E 023°32'0 0.0
2016-Jun-30 12:32N 38°02' E 023°32'0 0.0
2016-Jun-30 11:32N 38°02' E 023°32'0 0.1
2016-Jun-30 10:32N 38°02' E 023°32'0 0.1
2016-Jun-30 09:32N 38°01' E 023°32'0 0.0
2016-Jun-30 08:32N 38°02' E 023°32'0 0.1
2016-Jun-30 07:32N 38°02' E 023°32'0 0.0
2016-Jun-30 06:32N 38°02' E 023°32'0 0.0
2016-Jun-30 05:32N 38°02' E 023°32'0 0.1
2016-Jun-30 04:32N 38°02' E 023°32'0 0.0
2016-Jun-30 03:32N 38°02' E 023°32'0 0.0
2016-Jun-30 02:32N 38°02' E 023°32'0 0.0
2016-Jun-30 01:32N 38°02' E 023°32'0 0.0
2016-Jun-30 00:32N 38°02' E 023°32'0 0.0
2016-Jun-29 23:32N 38°02' E 023°32'0 0.1
2016-Jun-29 22:32N 38°02' E 023°32'0 0.0
2016-Jun-29 21:32N 38°02' E 023°32'0 0.0
2016-Jun-29 20:32N 38°02' E 023°32'0 0.0
2016-Jun-29 19:32N 38°02' E 023°32'0 0.0
2016-Jun-29 18:32N 38°02' E 023°32'0 0.0
2016-Jun-29 17:32N 38°02' E 023°32'0 0.0
2016-Jun-29 16:32N 38°02' E 023°32'0 0.0
2016-Jun-29 15:32N 38°02' E 023°32'0 0.1
2016-Jun-29 14:32N 38°02' E 023°32'0 0.1
2016-Jun-29 13:32N 38°01' E 023°32'0 0.0
2016-Jun-29 12:32N 38°01' E 023°32'0 0.0
2016-Jun-29 11:32N 38°01' E 023°32'0 0.0
2016-Jun-29 10:32N 38°01' E 023°32'0 0.0
2016-Jun-29 09:32N 38°01' E 023°32'0 0.0
2016-Jun-29 08:32N 38°01' E 023°32'0 0.0
2016-Jun-29 07:32N 38°01' E 023°32'0 0.0
2016-Jun-29 06:32N 38°01' E 023°32'3 3.4
2016-Jun-29 05:34N 37°58' E 023°33'6 5.5
2016-Jun-29 04:33N 37°54' E 023°37'1111.0
2016-Jun-29 03:33N 37°44' E 023°43'1010.3
2016-Jun-29 02:33N 37°38' E 023°54'1711.5
2016-Jun-29 01:04N 37°31' E 024°13'2811.3
2016-Jun-28 22:33N 37°32' E 024°49'1111.3
2016-Jun-28 21:33N 37°30' E 025°03'1211.9
2016-Jun-28 20:33N 37°28' E 025°18'1 1.2
2016-Jun-28 19:31N 37°28' E 025°19'0 0.0
2016-Jun-28 18:31N 37°28' E 025°19'0 0.0
2016-Jun-28 17:31N 37°28' E 025°19'3 3.0
2016-Jun-28 16:33N 37°26' E 025°17'1110.8
2016-Jun-28 15:33N 37°15' E 025°13'10 1.8
2016-Jun-28 10:06N 37°07' E 025°08'610.9
2016-Jun-28 09:34N 37°10' E 025°13'105 6.5
2016-Jun-27 17:18N 35°29' E 024°36'  
2016-Jun-22 03:29N 37°38' E 024°27'1112.3
2016-Jun-22 02:34N 37°49' E 024°32'3812.1
2016-Jun-21 23:26N 38°27' E 024°34'  
Track history (hours):
 
Tides and Currents Weather Stations Pressure Air Temp Water Temp Dewpoint Dewpoint Depression Visibility Wind Speed Wind Dir Waves Ship Positions

Apiliotis

Last reported at 2016-Jun-30 15:32 UTC. Time now 2016-Jun-30 15:59 UTC.
Position N 38°02' E 023°32'.

Length 79 m; draft 4 m.

Type: Ship. MMSI: 240438000.

Date/timePositionNaut miles runAvg speedWind from/ knotsBaromVisibWave heightAir tempDewpointWater temp
2016-Jun-30 15:32N 38°02' E 023°32'0 0.0
2016-Jun-30 14:32N 38°02' E 023°32'0 0.0
2016-Jun-30 13:32N 38°02' E 023°32'0 0.0
2016-Jun-30 12:32N 38°02' E 023°32'0 0.0
2016-Jun-30 11:32N 38°02' E 023°32'0 0.1
2016-Jun-30 10:32N 38°02' E 023°32'0 0.1
2016-Jun-30 09:32N 38°01' E 023°32'0 0.0
2016-Jun-30 08:32N 38°02' E 023°32'0 0.1
2016-Jun-30 07:32N 38°02' E 023°32'0 0.0
2016-Jun-30 06:32N 38°02' E 023°32'0 0.0
2016-Jun-30 05:32N 38°02' E 023°32'0 0.1
2016-Jun-30 04:32N 38°02' E 023°32'0 0.0
2016-Jun-30 03:32N 38°02' E 023°32'0 0.0
2016-Jun-30 02:32N 38°02' E 023°32'0 0.0
2016-Jun-30 01:32N 38°02' E 023°32'0 0.0
2016-Jun-30 00:32N 38°02' E 023°32'0 0.0
2016-Jun-29 23:32N 38°02' E 023°32'0 0.1
2016-Jun-29 22:32N 38°02' E 023°32'0 0.0
2016-Jun-29 21:32N 38°02' E 023°32'0 0.0
2016-Jun-29 20:32N 38°02' E 023°32'0 0.0
2016-Jun-29 19:32N 38°02' E 023°32'0 0.0
2016-Jun-29 18:32N 38°02' E 023°32'0 0.0
2016-Jun-29 17:32N 38°02' E 023°32'0 0.0
2016-Jun-29 16:32N 38°02' E 023°32'0 0.0
2016-Jun-29 15:32N 38°02' E 023°32'0 0.1
2016-Jun-29 14:32N 38°02' E 023°32'0 0.1
2016-Jun-29 13:32N 38°01' E 023°32'0 0.0
2016-Jun-29 12:32N 38°01' E 023°32'0 0.0
2016-Jun-29 11:32N 38°01' E 023°32'0 0.0
2016-Jun-29 10:32N 38°01' E 023°32'0 0.0
2016-Jun-29 09:32N 38°01' E 023°32'0 0.0
2016-Jun-29 08:32N 38°01' E 023°32'0 0.0
2016-Jun-29 07:32N 38°01' E 023°32'0 0.0
2016-Jun-29 06:32N 38°01' E 023°32'3 3.4
2016-Jun-29 05:34N 37°58' E 023°33'6 5.5
2016-Jun-29 04:33N 37°54' E 023°37'1111.0
2016-Jun-29 03:33N 37°44' E 023°43'1010.3
2016-Jun-29 02:33N 37°38' E 023°54'1711.5
2016-Jun-29 01:04N 37°31' E 024°13'2811.3
2016-Jun-28 22:33N 37°32' E 024°49'1111.3
2016-Jun-28 21:33N 37°30' E 025°03'1211.9
2016-Jun-28 20:33N 37°28' E 025°18'1 1.2
2016-Jun-28 19:31N 37°28' E 025°19'0 0.0
2016-Jun-28 18:31N 37°28' E 025°19'0 0.0
2016-Jun-28 17:31N 37°28' E 025°19'3 3.0
2016-Jun-28 16:33N 37°26' E 025°17'1110.8
2016-Jun-28 15:33N 37°15' E 025°13'10 1.8
2016-Jun-28 10:06N 37°07' E 025°08'610.9
2016-Jun-28 09:34N 37°10' E 025°13'105 6.5
2016-Jun-27 17:18N 35°29' E 024°36'  
2016-Jun-22 03:29N 37°38' E 024°27'1112.3
2016-Jun-22 02:34N 37°49' E 024°32'3812.1
2016-Jun-21 23:26N 38°27' E 024°34'  

Dump ship's entire track history